createdAt,value
2023-02-03T00:01:16.763Z,16.00
2023-02-03T00:03:44.759Z,15.50
2023-02-03T00:06:12.819Z,17.40
2023-02-03T00:08:40.971Z,16.27
2023-02-03T00:11:09.255Z,16.27
2023-02-03T00:13:37.671Z,13.97
2023-02-03T00:16:06.793Z,16.30
2023-02-03T00:18:36.151Z,15.17
2023-02-03T00:21:04.206Z,16.23
2023-02-03T00:23:33.008Z,10.83
2023-02-03T00:26:08.324Z,13.13
2023-02-03T00:28:36.329Z,14.47
2023-02-03T00:31:04.327Z,13.13
2023-02-03T00:33:33.747Z,13.90
2023-02-03T00:36:07.392Z,14.37
2023-02-03T00:38:35.319Z,12.07
2023-02-03T00:41:03.283Z,14.57
2023-02-03T00:43:31.555Z,12.90
2023-02-03T00:45:59.561Z,16.50
2023-02-03T00:48:27.610Z,15.47
2023-02-03T00:50:55.572Z,13.00
2023-02-03T00:53:24.852Z,12.00
2023-02-03T00:55:53.077Z,15.13
2023-02-03T00:58:21.066Z,10.87
2023-02-03T01:00:49.086Z,12.87
2023-02-03T01:03:18.100Z,11.97
2023-02-03T01:05:46.057Z,15.57
2023-02-03T01:08:14.982Z,12.53
2023-02-03T01:10:44.281Z,12.03
2023-02-03T01:13:12.236Z,14.33
2023-02-03T01:15:46.088Z,10.23
2023-02-03T01:18:14.181Z,11.27
2023-02-03T01:20:42.147Z,13.57
2023-02-03T01:23:10.067Z,11.87
2023-02-03T01:25:38.020Z,10.40
2023-02-03T01:28:07.590Z,10.70
2023-02-03T01:30:35.566Z,14.07
2023-02-03T01:33:03.602Z,11.47
2023-02-03T01:35:31.544Z,9.83
2023-02-03T01:37:59.607Z,11.27
2023-02-03T01:40:27.874Z,10.63
2023-02-03T01:42:56.071Z,10.47
2023-02-03T01:45:25.622Z,11.40
2023-02-03T01:47:59.703Z,15.87
2023-02-03T01:50:31.794Z,13.00
2023-02-03T01:53:03.398Z,12.97
2023-02-03T01:55:35.767Z,13.90
2023-02-03T01:58:08.140Z,10.87
2023-02-03T02:00:37.488Z,10.57
2023-02-03T02:03:07.049Z,12.50
2023-02-03T02:05:39.963Z,12.77
2023-02-03T02:08:09.892Z,11.77
2023-02-03T02:10:37.867Z,13.77
2023-02-03T02:13:07.040Z,11.33
2023-02-03T02:15:48.508Z,13.87
2023-02-03T02:18:29.843Z,11.00
2023-02-03T02:21:13.432Z,14.57
2023-02-03T02:24:06.618Z,12.67
2023-02-03T02:26:50.122Z,12.43
2023-02-03T02:29:42.499Z,14.73
2023-02-03T02:32:27.060Z,15.57
2023-02-03T02:35:03.901Z,15.03
2023-02-03T02:37:41.623Z,11.43
2023-02-03T02:40:20.766Z,12.30
2023-02-03T02:43:01.556Z,11.10
2023-02-03T02:45:38.369Z,11.93
2023-02-03T02:48:14.683Z,12.83
2023-02-03T02:50:47.136Z,10.57
2023-02-03T02:53:18.834Z,13.13
2023-02-03T02:55:47.911Z,13.17
2023-02-03T02:58:20.079Z,11.60
2023-02-03T03:00:48.431Z,10.77
2023-02-03T03:03:19.782Z,12.83
2023-02-03T03:05:52.985Z,14.23
2023-02-03T03:08:24.568Z,15.67
2023-02-03T03:10:54.762Z,15.57
2023-02-03T03:13:26.320Z,15.37
2023-02-03T03:15:55.879Z,14.17
2023-02-03T03:18:29.604Z,14.40
2023-02-03T03:21:06.019Z,15.33
2023-02-03T03:23:39.362Z,13.27
2023-02-03T03:26:12.975Z,14.07
2023-02-03T03:28:48.084Z,18.17
2023-02-03T03:31:17.266Z,14.90
2023-02-03T03:33:47.661Z,14.37
2023-02-03T03:36:23.338Z,14.80
2023-02-03T03:38:57.016Z,16.87
2023-02-03T03:41:32.445Z,16.33
2023-02-03T03:44:04.538Z,11.67
2023-02-03T03:46:41.140Z,11.63
2023-02-03T03:49:12.480Z,17.17
2023-02-03T03:51:45.421Z,10.50
2023-02-03T03:54:17.905Z,11.67
2023-02-03T03:56:51.481Z,10.50
2023-02-03T03:59:23.502Z,9.73
2023-02-03T04:01:53.273Z,10.07
2023-02-03T04:04:25.323Z,10.93
2023-02-03T04:06:54.873Z,11.73
2023-02-03T04:09:22.943Z,9.90
2023-02-03T04:12:03.131Z,12.80
2023-02-03T04:14:32.767Z,9.27
2023-02-03T04:17:01.055Z,9.97
2023-02-03T04:19:30.466Z,12.37
2023-02-03T04:21:58.514Z,12.40
2023-02-03T04:24:26.482Z,12.57
2023-02-03T04:26:54.443Z,11.43
2023-02-03T04:29:22.490Z,10.87
2023-02-03T04:31:50.524Z,12.27
2023-02-03T04:34:18.572Z,12.07
2023-02-03T04:36:47.855Z,13.43
2023-02-03T04:39:15.822Z,9.13
2023-02-03T04:41:43.760Z,11.60
2023-02-03T04:44:11.715Z,13.00
2023-02-03T04:46:39.656Z,14.33
2023-02-03T04:49:07.791Z,13.03
2023-02-03T04:51:35.706Z,10.90
2023-02-03T04:54:05.164Z,12.73
2023-02-03T04:56:33.110Z,11.57
2023-02-03T04:59:01.077Z,12.63
2023-02-03T05:01:28.997Z,16.13
2023-02-03T05:03:56.941Z,13.50
2023-02-03T05:06:26.270Z,12.60
2023-02-03T05:08:54.255Z,13.67
2023-02-03T05:11:23.945Z,14.83
2023-02-03T05:13:52.543Z,15.33
2023-02-03T05:16:20.600Z,19.60
2023-02-03T05:18:48.854Z,13.53
2023-02-03T05:21:17.011Z,15.90
2023-02-03T05:23:45.063Z,17.73
2023-02-03T05:26:13.299Z,18.60
2023-02-03T05:28:42.587Z,18.40
2023-02-03T05:31:10.592Z,20.20
2023-02-03T05:33:38.679Z,17.93
2023-02-03T05:36:07.167Z,20.03
2023-02-03T05:38:35.117Z,23.13
2023-02-03T05:41:20.739Z,20.13
2023-02-03T05:43:50.048Z,21.20
2023-02-03T05:46:18.084Z,23.63
2023-02-03T05:48:46.105Z,19.47
2023-02-03T05:51:14.389Z,22.27
2023-02-03T05:53:42.344Z,21.10
2023-02-03T05:56:10.875Z,21.53
2023-02-03T05:58:38.827Z,20.77
2023-02-03T06:01:08.118Z,20.17
2023-02-03T06:03:36.156Z,20.30
2023-02-03T06:06:04.605Z,23.93
2023-02-03T06:08:32.560Z,20.27
2023-02-03T06:11:01.062Z,23.07
2023-02-03T06:13:29.716Z,21.93
2023-02-03T06:15:58.794Z,25.40
2023-02-03T06:18:28.179Z,21.67
2023-02-03T06:20:56.600Z,25.40
2023-02-03T06:23:24.624Z,24.30
2023-02-03T06:25:53.009Z,24.63
2023-02-03T06:28:21.141Z,25.03
2023-02-03T06:30:52.121Z,21.73
2023-02-03T06:33:20.238Z,25.33
2023-02-03T06:35:49.657Z,24.17
2023-02-03T06:38:17.819Z,22.00
2023-02-03T06:40:48.017Z,23.63
2023-02-03T06:43:16.489Z,22.40
2023-02-03T06:45:47.503Z,26.90
2023-02-03T06:48:18.359Z,21.87
2023-02-03T06:50:48.759Z,22.80
2023-02-03T06:53:18.606Z,27.80
2023-02-03T06:55:48.103Z,24.90
2023-02-03T06:58:16.758Z,22.87
2023-02-03T07:00:44.764Z,25.53
2023-02-03T07:03:12.888Z,23.43
2023-02-03T07:05:41.372Z,22.23
2023-02-03T07:08:09.553Z,22.47
2023-02-03T07:10:39.040Z,17.67
2023-02-03T07:13:07.740Z,23.63
2023-02-03T07:15:36.142Z,24.90
2023-02-03T07:18:04.826Z,20.60
2023-02-03T07:20:33.557Z,22.00
2023-02-03T07:23:02.794Z,22.20
2023-02-03T07:25:32.022Z,21.60
2023-02-03T07:28:01.986Z,24.57
2023-02-03T07:30:30.792Z,19.87
2023-02-03T07:32:59.281Z,18.10
2023-02-03T07:35:30.510Z,21.77
2023-02-03T07:37:58.773Z,19.30
2023-02-03T07:40:27.178Z,21.00
2023-02-03T07:42:55.497Z,19.70
2023-02-03T07:45:25.606Z,19.53
2023-02-03T07:47:54.471Z,18.07
2023-02-03T07:50:22.948Z,21.70
2023-02-03T07:52:52.264Z,18.53
2023-02-03T07:55:20.275Z,18.17
2023-02-03T07:57:48.265Z,19.93
2023-02-03T08:00:17.887Z,17.20
2023-02-03T08:02:47.592Z,17.73
2023-02-03T08:05:16.833Z,20.80
2023-02-03T08:07:45.231Z,17.33
2023-02-03T08:10:15.781Z,19.97
2023-02-03T08:12:45.390Z,17.87
2023-02-03T08:15:14.443Z,16.23
2023-02-03T08:17:44.620Z,19.67
2023-02-03T08:20:14.445Z,18.77
2023-02-03T08:22:42.540Z,21.07
2023-02-03T08:25:11.250Z,21.90
2023-02-03T08:27:39.981Z,23.03
2023-02-03T08:30:10.915Z,20.13
2023-02-03T08:32:39.161Z,26.37
2023-02-03T08:35:08.351Z,22.23
2023-02-03T08:37:38.187Z,18.60
2023-02-03T08:40:08.059Z,20.43
2023-02-03T08:42:36.388Z,23.20
2023-02-03T08:45:05.334Z,25.67
2023-02-03T08:47:33.467Z,19.13
2023-02-03T08:50:01.623Z,19.07
2023-02-03T08:52:30.156Z,17.63
2023-02-03T08:54:59.623Z,14.57
2023-02-03T08:57:28.025Z,18.73
2023-02-03T08:59:56.923Z,18.53
2023-02-03T09:02:25.567Z,17.63
2023-02-03T09:04:54.004Z,17.37
2023-02-03T09:07:22.167Z,22.13
2023-02-03T09:09:50.125Z,19.30
2023-02-03T09:12:19.717Z,24.37
2023-02-03T09:14:47.700Z,18.60
2023-02-03T09:17:15.700Z,23.90
2023-02-03T09:19:43.719Z,23.27
2023-02-03T09:22:11.776Z,21.97
2023-02-03T09:24:40.077Z,21.80
2023-02-03T09:27:08.189Z,23.07
2023-02-03T09:29:37.950Z,20.87
2023-02-03T09:32:08.875Z,20.47
2023-02-03T09:34:37.422Z,22.83
2023-02-03T09:37:05.537Z,18.90
2023-02-03T09:39:33.587Z,20.50
2023-02-03T09:42:36.409Z,20.03
2023-02-03T09:45:14.079Z,22.67
2023-02-03T09:47:44.625Z,20.00
2023-02-03T09:50:19.900Z,21.17
2023-02-03T09:52:48.372Z,19.73
2023-02-03T09:55:35.092Z,26.63
2023-02-03T09:58:06.791Z,19.73
2023-02-03T10:00:41.450Z,15.23
2023-02-03T10:03:15.756Z,18.53
2023-02-03T10:06:03.604Z,31.23
2023-02-03T10:08:45.044Z,21.83
2023-02-03T10:11:22.620Z,20.00
2023-02-03T10:13:59.412Z,22.07
2023-02-03T10:16:43.914Z,19.00
2023-02-03T10:19:17.683Z,20.10
2023-02-03T10:21:50.115Z,17.60
2023-02-03T10:24:23.711Z,16.63
2023-02-03T10:26:53.504Z,17.40
2023-02-03T10:29:25.095Z,22.87
2023-02-03T10:31:58.656Z,48.77
2023-02-03T10:34:27.523Z,36.10
2023-02-03T10:36:57.814Z,28.63
2023-02-03T10:39:33.565Z,23.43
2023-02-03T10:42:02.839Z,31.23
2023-02-03T10:44:37.279Z,18.10
2023-02-03T10:47:22.199Z,21.90
2023-02-03T10:49:53.163Z,18.10
2023-02-03T10:52:32.569Z,20.17
2023-02-03T10:55:00.667Z,17.07
2023-02-03T10:57:31.195Z,17.57
2023-02-03T11:00:09.048Z,14.93
2023-02-03T11:02:38.690Z,20.00
2023-02-03T11:05:21.090Z,16.17
2023-02-03T11:07:49.815Z,17.13
2023-02-03T11:10:35.944Z,16.33
2023-02-03T11:13:19.368Z,16.07
2023-02-03T11:15:55.015Z,15.27
2023-02-03T11:18:40.425Z,16.13
2023-02-03T11:21:14.534Z,12.23
2023-02-03T11:23:50.020Z,13.70
2023-02-03T11:26:23.180Z,15.60
2023-02-03T11:28:53.482Z,16.13
2023-02-03T11:31:24.744Z,14.87
2023-02-03T11:34:01.300Z,18.30
2023-02-03T11:36:31.806Z,15.33
2023-02-03T11:39:18.568Z,12.57
2023-02-03T11:41:50.404Z,16.43
2023-02-03T11:44:22.147Z,16.33
2023-02-03T11:46:54.306Z,17.17
2023-02-03T11:49:45.220Z,17.20
2023-02-03T11:52:38.740Z,13.23
2023-02-03T11:55:17.411Z,16.33
2023-02-03T11:57:52.226Z,16.43
2023-02-03T12:00:33.596Z,17.77
2023-02-03T12:03:18.090Z,16.43
2023-02-03T12:06:03.046Z,15.13
2023-02-03T12:08:43.557Z,19.57
2023-02-03T12:11:19.302Z,20.40
2023-02-03T12:14:04.630Z,19.23
2023-02-03T12:17:05.590Z,18.50
2023-02-03T12:19:46.761Z,21.90
2023-02-03T12:22:25.234Z,20.50
2023-02-03T12:25:01.062Z,24.87
2023-02-03T12:27:43.906Z,20.50
2023-02-03T12:30:18.339Z,18.47
2023-02-03T12:32:52.661Z,20.93
2023-02-03T12:35:26.503Z,20.77
2023-02-03T12:38:00.180Z,20.43
2023-02-03T12:40:37.305Z,21.97
2023-02-03T12:43:21.060Z,20.97
2023-02-03T12:45:54.389Z,19.10
2023-02-03T12:48:28.248Z,17.43
2023-02-03T12:51:01.819Z,19.10
2023-02-03T12:53:34.935Z,21.30
2023-02-03T12:56:10.995Z,19.97
2023-02-03T12:58:43.807Z,19.93
2023-02-03T13:01:17.877Z,17.73
2023-02-03T13:03:51.600Z,22.27
2023-02-03T13:06:26.185Z,21.97
2023-02-03T13:09:03.854Z,21.17
2023-02-03T13:11:40.813Z,26.17
2023-02-03T13:14:16.786Z,20.47
2023-02-03T13:16:53.141Z,23.03
2023-02-03T13:19:25.556Z,23.30
2023-02-03T13:21:57.983Z,19.50
2023-02-03T13:24:28.878Z,18.10
2023-02-03T13:27:15.203Z,16.83
2023-02-03T13:29:58.265Z,14.33
2023-02-03T13:32:42.589Z,15.10
2023-02-03T13:35:43.839Z,13.97
2023-02-03T13:38:36.990Z,16.00
2023-02-03T13:41:11.881Z,14.40
2023-02-03T13:43:47.433Z,14.37
2023-02-03T13:46:22.974Z,15.60
2023-02-03T13:48:55.315Z,14.70
2023-02-03T13:51:29.152Z,15.77
2023-02-03T13:54:03.153Z,13.67
2023-02-03T13:56:33.868Z,18.33
2023-02-03T13:59:05.117Z,15.07
2023-02-03T14:01:38.846Z,11.70
2023-02-03T14:04:09.221Z,11.83
2023-02-03T14:07:02.371Z,12.77
2023-02-03T14:09:47.079Z,15.30
2023-02-03T14:12:35.815Z,14.63
2023-02-03T14:15:24.263Z,17.57
2023-02-03T14:17:58.514Z,14.37
2023-02-03T14:21:11.382Z,13.30
2023-02-03T14:23:50.490Z,14.30
2023-02-03T14:26:39.363Z,12.17
2023-02-03T14:29:11.084Z,13.43
2023-02-03T14:31:57.939Z,13.60
2023-02-03T14:34:34.155Z,15.37
2023-02-03T14:37:19.577Z,13.20
2023-02-03T14:40:15.159Z,11.27
2023-02-03T14:43:12.062Z,13.40
2023-02-03T14:46:07.806Z,14.77
2023-02-03T14:48:56.788Z,13.07
2023-02-03T14:51:46.561Z,19.80
2023-02-03T14:54:32.351Z,18.17
2023-02-03T14:57:19.875Z,15.23
2023-02-03T14:59:58.671Z,11.27
2023-02-03T15:02:31.136Z,15.33
2023-02-03T15:05:29.745Z,16.27
2023-02-03T15:07:58.038Z,20.20
2023-02-03T15:10:31.723Z,18.87
2023-02-03T15:13:00.136Z,27.07
2023-02-03T15:15:31.059Z,27.47
2023-02-03T15:18:20.721Z,27.67
2023-02-03T15:20:53.398Z,34.23
2023-02-03T15:23:24.001Z,28.70
2023-02-03T15:25:56.257Z,34.97
2023-02-03T15:28:26.349Z,37.67
2023-02-03T15:30:58.924Z,31.00
2023-02-03T15:33:31.340Z,26.03
2023-02-03T15:36:04.734Z,26.50
2023-02-03T15:38:37.007Z,26.23
2023-02-03T15:41:08.934Z,26.50
2023-02-03T15:43:39.724Z,30.63
2023-02-03T15:46:13.108Z,23.20
2023-02-03T15:48:45.475Z,23.67
2023-02-03T15:51:17.021Z,27.70
2023-02-03T15:53:49.977Z,24.53
2023-02-03T15:56:30.549Z,23.07
2023-02-03T15:58:59.587Z,27.87
2023-02-03T16:01:28.216Z,30.97
2023-02-03T16:03:59.645Z,28.40
2023-02-03T16:06:35.720Z,23.73
2023-02-03T16:09:04.530Z,23.80
2023-02-03T16:11:34.978Z,27.10
2023-02-03T16:14:06.773Z,27.33
2023-02-03T16:16:38.908Z,31.17
2023-02-03T16:19:14.699Z,30.93
2023-02-03T16:21:55.154Z,32.77
2023-02-03T16:24:40.985Z,36.50
2023-02-03T16:27:32.127Z,35.17
2023-02-03T16:30:42.933Z,32.27
2023-02-03T16:33:34.248Z,33.20
2023-02-03T16:36:29.565Z,35.60
2023-02-03T16:39:16.377Z,32.10
2023-02-03T16:42:01.838Z,25.93
2023-02-03T16:44:47.337Z,26.57
2023-02-03T16:47:42.695Z,24.70
2023-02-03T16:50:38.165Z,27.70
2023-02-03T16:53:13.103Z,30.43
2023-02-03T16:55:41.374Z,26.37
2023-02-03T16:58:09.688Z,28.47
2023-02-03T17:00:41.375Z,34.67
2023-02-03T17:03:09.508Z,32.20
2023-02-03T17:05:38.199Z,31.40
2023-02-03T17:08:06.290Z,35.30
2023-02-03T17:10:36.337Z,34.77
2023-02-03T17:13:04.837Z,32.57
2023-02-03T17:15:33.212Z,30.57
2023-02-03T17:18:01.190Z,37.63
2023-02-03T17:20:29.210Z,32.57
2023-02-03T17:22:57.183Z,36.30
2023-02-03T17:25:25.248Z,36.30
2023-02-03T17:27:54.644Z,31.43
2023-02-03T17:30:22.932Z,35.07
2023-02-03T17:32:51.260Z,40.50
2023-02-03T17:35:19.296Z,37.27
2023-02-03T17:37:47.247Z,36.97
2023-02-03T17:54:07.514Z,42.23
2023-02-03T17:56:36.530Z,40.13
2023-02-03T17:59:06.932Z,35.87
2023-02-03T18:01:34.891Z,35.60
2023-02-03T18:04:04.654Z,26.03
2023-02-03T18:06:35.160Z,25.37
2023-02-03T18:09:03.612Z,33.47
2023-02-03T18:11:33.059Z,29.97
2023-02-03T18:14:01.580Z,29.17
2023-02-03T18:16:33.522Z,38.93
2023-02-03T18:19:04.260Z,36.53
2023-02-03T18:21:33.372Z,38.77
2023-02-03T18:24:02.000Z,34.57
2023-02-03T18:26:32.905Z,38.10
2023-02-03T18:29:00.962Z,26.07
2023-02-03T18:31:30.457Z,30.77
2023-02-03T18:34:02.764Z,35.60
2023-02-03T18:36:30.792Z,32.23
2023-02-03T18:38:59.191Z,28.50
2023-02-03T18:41:27.696Z,35.67
2023-02-03T18:43:55.992Z,31.20
2023-02-03T18:46:25.978Z,26.47
2023-02-03T18:48:56.158Z,31.67
2023-02-03T18:51:26.169Z,32.83
2023-02-03T18:53:57.977Z,28.23
2023-02-03T18:56:34.828Z,35.40
2023-02-03T18:59:05.730Z,30.37
2023-02-03T19:01:35.208Z,39.03
2023-02-03T19:04:04.891Z,31.47
2023-02-03T19:06:34.699Z,27.70
2023-02-03T19:09:03.290Z,28.33
2023-02-03T19:11:31.250Z,25.63
2023-02-03T19:13:59.181Z,29.70
2023-02-03T19:16:27.180Z,27.60
2023-02-03T19:18:55.138Z,30.20
2023-02-03T19:21:24.404Z,30.67
2023-02-03T19:23:52.472Z,29.97
2023-02-03T19:26:20.425Z,33.63
2023-02-03T19:28:48.458Z,29.40
2023-02-03T19:31:16.846Z,24.63
2023-02-03T19:33:44.956Z,32.00
2023-02-03T19:36:13.794Z,30.97
2023-02-03T19:38:43.141Z,25.50
2023-02-03T19:41:11.763Z,28.60
2023-02-03T19:43:40.466Z,27.93
2023-02-03T19:46:08.528Z,30.60
2023-02-03T19:48:37.040Z,26.40
2023-02-03T19:51:05.281Z,24.67
2023-02-03T19:53:33.388Z,31.30
2023-02-03T19:56:02.852Z,33.43
2023-02-03T19:58:31.662Z,28.30
2023-02-03T20:00:59.633Z,32.27
2023-02-03T20:03:27.605Z,36.07
2023-02-03T20:05:55.544Z,25.77
2023-02-03T20:08:23.491Z,24.10
2023-02-03T20:10:52.429Z,22.93
2023-02-03T20:13:21.826Z,26.13
2023-02-03T20:15:49.810Z,28.17
2023-02-03T20:18:17.782Z,28.07
2023-02-03T20:20:45.760Z,27.10
2023-02-03T20:23:13.708Z,30.40
2023-02-03T20:25:42.707Z,31.63
2023-02-03T20:28:10.992Z,23.53
2023-02-03T20:30:40.866Z,26.17
2023-02-03T20:33:08.935Z,32.57
2023-02-03T20:35:38.350Z,34.83
2023-02-03T20:38:06.567Z,32.13
2023-02-03T20:40:34.499Z,31.60
2023-02-03T20:43:07.965Z,31.07
2023-02-03T20:45:37.583Z,28.63
2023-02-03T20:48:09.990Z,30.73
2023-02-03T20:50:42.660Z,29.40
2023-02-03T20:53:15.026Z,33.50
2023-02-03T20:55:43.110Z,30.43
2023-02-03T20:58:18.328Z,29.97
2023-02-03T21:00:46.709Z,30.80
2023-02-03T21:03:35.253Z,34.20
2023-02-03T21:06:04.915Z,34.60
2023-02-03T21:08:33.901Z,36.33
2023-02-03T21:11:01.891Z,32.10
2023-02-03T21:13:34.483Z,30.50
2023-02-03T21:16:03.549Z,29.70
2023-02-03T21:18:39.568Z,36.57
2023-02-03T21:21:14.907Z,26.57
2023-02-03T21:23:47.310Z,30.87
2023-02-03T21:26:21.420Z,36.97
2023-02-03T21:28:51.513Z,30.77
2023-02-03T21:31:25.666Z,33.03
2023-02-03T21:33:56.448Z,30.27
2023-02-03T21:36:26.223Z,34.57
2023-02-03T21:38:55.692Z,29.37
2023-02-03T21:41:25.317Z,25.53
2023-02-03T21:43:54.835Z,26.77
2023-02-03T21:46:26.772Z,24.13
2023-02-03T21:49:00.032Z,21.17
2023-02-03T21:51:30.473Z,28.40
2023-02-03T21:54:00.599Z,25.50
2023-02-03T21:56:31.322Z,19.33
2023-02-03T21:59:00.188Z,24.40
2023-02-03T22:01:33.304Z,24.87
2023-02-03T22:04:04.045Z,24.00
2023-02-03T22:06:42.308Z,22.73
2023-02-03T22:09:12.221Z,19.03
2023-02-03T22:11:40.297Z,26.53
2023-02-03T22:14:08.358Z,21.27
2023-02-03T22:16:36.428Z,20.90
2023-02-03T22:19:06.023Z,20.53
2023-02-03T22:21:34.003Z,24.47
2023-02-03T22:24:02.045Z,26.53
2023-02-03T22:26:30.128Z,23.37
2023-02-03T22:28:58.081Z,20.07
2023-02-03T22:31:26.145Z,22.33
2023-02-03T22:33:54.181Z,20.70
2023-02-03T22:36:23.609Z,22.93
2023-02-03T22:38:52.487Z,17.43
2023-02-03T22:41:20.946Z,20.07
2023-02-03T22:43:48.979Z,19.93
2023-02-03T22:46:17.001Z,18.67
2023-02-03T22:48:44.956Z,17.90
2023-02-03T22:51:12.874Z,16.90
2023-02-03T22:53:42.164Z,17.47
2023-02-03T22:56:10.121Z,17.63
2023-02-03T22:58:38.090Z,14.63
2023-02-03T23:01:06.416Z,19.07
2023-02-03T23:03:34.437Z,19.37
2023-02-03T23:06:02.466Z,19.93
2023-02-03T23:08:30.425Z,18.10
2023-02-03T23:10:59.747Z,16.57
2023-02-03T23:13:28.200Z,15.00
2023-02-03T23:15:56.273Z,16.50
2023-02-03T23:18:24.260Z,15.37
2023-02-03T23:20:52.325Z,17.70
2023-02-03T23:23:20.301Z,18.53
2023-02-03T23:25:48.220Z,17.63
2023-02-03T23:28:17.584Z,18.53
2023-02-03T23:30:45.690Z,14.13
2023-02-03T23:33:13.715Z,15.60
2023-02-03T23:35:46.721Z,15.20
2023-02-03T23:38:15.673Z,20.73
2023-02-03T23:40:43.988Z,14.80
2023-02-03T23:43:11.949Z,16.03
2023-02-03T23:45:41.863Z,21.87
2023-02-03T23:48:10.044Z,18.37
2023-02-03T23:50:37.967Z,20.53
2023-02-03T23:53:06.253Z,20.57
2023-02-03T23:55:36.296Z,21.30
2023-02-03T23:58:05.026Z,17.07
